Nearby METAR Reports

 

KSJC - San Jose, California, USA
Distance from station: NE 14km
Updated: 19/07/2019 02:53
Partly cloudy
Partly cloudy
 Wind from NNW
Wind: NNW 22 km/h, Gust: 33 km/h
Temperature: 23°C
Dew Point: 14°C
Humidity: 57%
Barometer: 1011.5 hPa
Clouds: Partly cloudy
Visibility: 16 km
Cloud details: Few Clouds 122 m
Few Clouds 488 m
Partly cloudy 2438 m
2019/07/19 01:53 KSJC 190153Z 33012G18KT 10SM FEW004 FEW016 SCT080 23/14 A2987 RMK AO2 SLP112 T02330144
KNUQ - Moffett Nas/Mtn, California, USA
Distance from station: N 14km
Updated: 19/07/2019 01:56
Clear
Clear
 Wind from N
Wind: N 30 km/h, Gust: 37 km/h
Temperature: 26°C
Dew Point: 16°C
Humidity: 54%
Barometer: 1011.5 hPa
Clouds: Clear
Visibility: 16 km
2019/07/19 00:56 KNUQ 190056Z 36016G20KT 10SM CLR 26/16 A2987 RMK AO2 SLP117 T02560156 $
 
KPAO - Palo Alto, California, USA
Distance from station: NNW 23km
Updated: 19/07/2019 02:47
Few Clouds
Few Clouds
 Wind from WSW
Wind: WSW 24 km/h
Temperature: 23°C
Dew Point: 14°C
Humidity: 57%
Barometer: 1011.5 hPa
Clouds: Few Clouds
Visibility: 16 km
Cloud details: Few Clouds 6096 m
2019/07/19 01:47 KPAO 190147Z 24013KT 10SM FEW200 23/14 A2987
KRHV - San Jose/Reid, California, USA
Distance from station: ENE 19km
Updated: 19/07/2019 01:47
Partly cloudy
Partly cloudy
 Wind from NW
Wind: NW 17 km/h
Temperature: 27°C
Heat Index: 27°C
Dew Point: 15°C
Humidity: 48%
Barometer: 1011.5 hPa
Clouds: Partly cloudy
Visibility: 16 km
Cloud details: Partly cloudy 3962 m
2019/07/19 00:47 KRHV 190047Z 31009KT 10SM SCT130 27/15 A2987
 
KOAK - Oakland, California, USA
Distance from station: NNW 50km
Updated: 19/07/2019 02:53
Mostly cloudy
Mostly cloudy
 Wind from W
Wind: W 13 km/h
Temperature: 18°C
Dew Point: 13°C
Humidity: 73%
Barometer: 1012.5 hPa
Clouds: Mostly cloudy
Visibility: 16 km
Cloud details: Few Clouds 244 m
Mostly cloudy 305 m
Mostly cloudy 6096 m
2019/07/19 01:53 KOAK 190153Z 28007KT 10SM FEW008 BKN010 BKN200 18/13 A2990 RMK AO2 SLP124 T01830133 $
KSQL - San Carlos Airpo, California, USA
Distance from station: NW 34km
Updated: 19/07/2019 02:47
Few Clouds
Few Clouds
 Wind from NW
Wind: NW 20 km/h
Temperature: 20°C
Dew Point: 14°C
Humidity: 69%
Barometer: 1011.5 hPa
Clouds: Few Clouds
Visibility: 16 km
Cloud details: Few Clouds 914 m
2019/07/19 01:47 KSQL 190147Z 31011KT 10SM FEW030 20/14 A2987
 
KSFO - San Francisco, California, USA
Distance from station: NW 49km
Updated: 19/07/2019 01:56
Partly cloudy
Partly cloudy
 Wind from SW
Wind: SW 26 km/h
Temperature: 21°C
Dew Point: 13°C
Humidity: 60%
Barometer: 1012.2 hPa
Clouds: Partly cloudy
Visibility: 16 km
Cloud details: Few Clouds 122 m
Partly cloudy 6096 m
2019/07/19 00:56 KSFO 190056Z 22014KT 10SM FEW004 SCT200 21/13 A2989 RMK AO2 SLP122 T02060133
KE16 - San Martin, California, USA
Distance from station: ESE 43km
Updated: 19/07/2019 02:15
Clear
Clear
 Wind from SSE
Wind: SSE 22 km/h
Temperature: 22°C
Dew Point: 13°C
Humidity: 57%
Barometer: 1012.2 hPa
Clouds: Clear
Visibility: 16 km
2019/07/19 01:15 KE16 190115Z AUTO 16012KT 10SM CLR 22/13 A2989 RMK AO2 PWINO PNO
 
KWVI - Watsonville, California, USA
Distance from station: SSE 44km
Updated: 19/07/2019 02:53
Mist, Overcast
Mist, Overcast
 Wind from W
Wind: W 9 km/h
Temperature: 15°C
Dew Point: 14°C
Humidity: 94%
Barometer: 1013.9 hPa
Summary: Mist
Clouds: Overcast
Visibility: 2 km
Cloud details: Overcast 91 m
2019/07/19 01:53 KWVI 190153Z AUTO 26005KT 1 1/4SM BR OVC003 15/14 A2994 RMK AO2 SLP138 T01500139
KHAF - Half Moon Bay, California, USA
Distance from station: WNW 50km
Updated: 19/07/2019 02:55
Mist, Overcast
Mist, Overcast
 Wind from W
Wind: W 7 km/h
Temperature: 14°C
Dew Point: 14°C
Humidity: 100%
Barometer: 1013.9 hPa
Summary: Mist
Clouds: Overcast
Visibility: 2 km
Cloud details: Overcast 122 m
2019/07/19 01:55 KHAF 190155Z AUTO 26004KT 1 1/4SM BR OVC004 14/14 A2994 RMK AO2
 
KHWD - Hayward, California, USA
Distance from station: N 44km
Updated: 19/07/2019 02:54
Few Clouds
Few Clouds
 Wind from WNW
Wind: WNW 28 km/h
Temperature: 19°C
Dew Point: 14°C
Humidity: 73%
Barometer: 1012.2 hPa
Clouds: Few Clouds
Visibility: 16 km
Cloud details: Few Clouds 914 m
2019/07/19 01:54 KHWD 190154Z 30015KT 10SM FEW030 19/14 A2989 RMK AO2 SLP129 T018901
KLVK - Livermore, California, USA
Distance from station: NNE 51km
Updated: 19/07/2019 02:53
Clear
Clear
 Wind from WNW
Wind: WNW 26 km/h
Temperature: 22°C
Dew Point: 14°C
Humidity: 61%
Barometer: 1010.8 hPa
Clouds: Clear
Visibility: 16 km
2019/07/19 01:53 KLVK 190153Z 29014KT 10SM CLR 22/14 A2985 RMK AO2 SLP104 T02220139